Mississagi — CFG8050 — position and weather

sailwx.info

Track history (hours):
 
Tides and Currents Weather Stations Pressure Air Temp Water Temp Dewpoint Dewpoint Depression Visibility Wind Speed Wind Dir Waves Ship Positions

Mississagi

Last reported at 2014-Nov-07 17:31 UTC. Time now 2014-Nov-26 16:15 UTC.
Position N 45°50' W 084°06'.
Warning: this ship's position is 18 days out of date.

Length 189 m; draft 7.2 m.

Type: Cargo ship. MMSI: 316004940.

Date/timePositionNaut miles runAvg speedWind from/ knotsBaromVisibWave heightAir tempDewpointWater temp
2014-Nov-07 17:31N 45°50' W 084°06'1111.4
2014-Nov-07 16:33N 45°51' W 084°21'1111.2
2014-Nov-07 15:33N 45°50' W 084°37'1111.3
2014-Nov-07 14:33N 45°50' W 084°54'1111.4
2014-Nov-07 13:33N 45°51' W 085°10'1111.4
2014-Nov-07 12:33N 45°53' W 085°26'1211.5
2014-Nov-07 11:33N 45°54' W 085°43'8 8.0
2014-Nov-07 10:33N 45°58' W 085°52'0 0.1
2014-Nov-07 09:33N 45°58' W 085°52'0 0.1
2014-Nov-07 08:33N 45°58' W 085°52'0 0.0
2014-Nov-07 07:33N 45°58' W 085°52'0 0.0
2014-Nov-07 06:33N 45°58' W 085°52'0 0.0
2014-Nov-07 05:34N 45°58' W 085°52'0 0.0
2014-Nov-07 04:34N 45°58' W 085°52'1 1.3
2014-Nov-07 03:33N 45°57' W 085°53'9 9.2
2014-Nov-07 02:33N 45°49' W 085°59'1211.6
2014-Nov-07 01:33N 45°39' W 086°09'1111.4
2014-Nov-07 00:33N 45°30' W 086°18'  
2014-Nov-04 17:34N 45°37' W 086°15'1110.9
2014-Nov-04 16:33N 45°43' W 086°01'1110.8
2014-Nov-04 15:34N 45°48' W 085°48'1110.7
2014-Nov-04 14:33N 45°53' W 085°34'1110.8
2014-Nov-04 13:34N 45°52' W 085°19'1111.1
2014-Nov-04 12:34N 45°51' W 085°03'1111.3
2014-Nov-04 11:33N 45°49' W 084°47'1111.1
2014-Nov-04 10:34N 45°44' W 084°33'1110.8
2014-Nov-04 09:33N 45°41' W 084°18'1111.3
2014-Nov-04 08:33N 45°37' W 084°03'  
Track history (hours):
 
Tides and Currents Weather Stations Pressure Air Temp Water Temp Dewpoint Dewpoint Depression Visibility Wind Speed Wind Dir Waves Ship Positions

Mississagi

Last reported at 2014-Nov-07 17:31 UTC. Time now 2014-Nov-26 16:15 UTC.
Position N 45°50' W 084°06'.
Warning: this ship's position is 18 days out of date.

Length 189 m; draft 7.2 m.

Type: Cargo ship. MMSI: 316004940.

Date/timePositionNaut miles runAvg speedWind from/ knotsBaromVisibWave heightAir tempDewpointWater temp
2014-Nov-07 17:31N 45°50' W 084°06'1111.4
2014-Nov-07 16:33N 45°51' W 084°21'1111.2
2014-Nov-07 15:33N 45°50' W 084°37'1111.3
2014-Nov-07 14:33N 45°50' W 084°54'1111.4
2014-Nov-07 13:33N 45°51' W 085°10'1111.4
2014-Nov-07 12:33N 45°53' W 085°26'1211.5
2014-Nov-07 11:33N 45°54' W 085°43'8 8.0
2014-Nov-07 10:33N 45°58' W 085°52'0 0.1
2014-Nov-07 09:33N 45°58' W 085°52'0 0.1
2014-Nov-07 08:33N 45°58' W 085°52'0 0.0
2014-Nov-07 07:33N 45°58' W 085°52'0 0.0
2014-Nov-07 06:33N 45°58' W 085°52'0 0.0
2014-Nov-07 05:34N 45°58' W 085°52'0 0.0
2014-Nov-07 04:34N 45°58' W 085°52'1 1.3
2014-Nov-07 03:33N 45°57' W 085°53'9 9.2
2014-Nov-07 02:33N 45°49' W 085°59'1211.6
2014-Nov-07 01:33N 45°39' W 086°09'1111.4
2014-Nov-07 00:33N 45°30' W 086°18'  
2014-Nov-04 17:34N 45°37' W 086°15'1110.9
2014-Nov-04 16:33N 45°43' W 086°01'1110.8
2014-Nov-04 15:34N 45°48' W 085°48'1110.7
2014-Nov-04 14:33N 45°53' W 085°34'1110.8
2014-Nov-04 13:34N 45°52' W 085°19'1111.1
2014-Nov-04 12:34N 45°51' W 085°03'1111.3
2014-Nov-04 11:33N 45°49' W 084°47'1111.1
2014-Nov-04 10:34N 45°44' W 084°33'1110.8
2014-Nov-04 09:33N 45°41' W 084°18'1111.3
2014-Nov-04 08:33N 45°37' W 084°03'  

Dump ship's entire track history